Time,TemperatureF,DewpointF,PressureIn,WindDirection,WindDirectionDegrees,WindSpeedMPH,WindSpeedGustMPH,Humidity,HourlyPrecipIn,Conditions,Clouds,dailyrainin,SoftwareType,DateUTC
2013-06-15 00:01:00,60.4,43.7,29.88,West,277,2.7,2.7,54,0.00,,---,1.14,VWS V14.01,2013-06-15 04:01:00,
2013-06-15 00:06:00,60.1,43.4,29.88,West,277,2.7,3.6,54,0.00,,---,0.00,VWS V14.01,2013-06-15 04:06:00,
2013-06-15 00:11:00,59.7,43.1,29.88,West,277,0.0,0.0,54,0.00,,---,0.00,VWS V14.01,2013-06-15 04:11:00,
2013-06-15 00:16:00,59.5,42.9,29.88,West,277,3.6,4.5,54,0.00,,---,0.00,VWS V14.01,2013-06-15 04:16:00,
2013-06-15 00:21:00,59.2,42.6,29.88,West,277,0.0,2.7,54,0.00,,---,0.00,VWS V14.01,2013-06-15 04:21:00,
2013-06-15 00:26:00,59.2,42.6,29.88,West,277,0.0,0.0,54,0.00,,---,0.00,VWS V14.01,2013-06-15 04:26:00,
2013-06-15 00:31:00,59.2,42.6,29.88,West,277,0.0,0.0,54,0.00,,---,0.00,VWS V14.01,2013-06-15 04:31:00,
2013-06-15 00:36:00,58.8,42.2,29.88,West,277,0.0,0.0,54,0.00,,---,0.00,VWS V14.01,2013-06-15 04:36:00,
2013-06-15 00:41:00,58.6,42.1,29.88,West,277,0.0,0.0,54,0.00,,---,0.00,VWS V14.01,2013-06-15 04:41:00,
2013-06-15 00:46:00,58.5,42.4,29.88,West,277,0.0,0.0,55,0.00,,---,0.00,VWS V14.01,2013-06-15 04:46:00,
2013-06-15 00:51:00,58.3,42.2,29.88,West,277,0.0,0.0,55,0.00,,---,0.00,VWS V14.01,2013-06-15 04:51:00,
2013-06-15 00:56:00,58.1,42.5,29.88,West,277,0.0,0.0,56,0.00,,---,0.00,VWS V14.01,2013-06-15 04:56:00,
2013-06-15 01:01:00,57.9,42.3,29.88,West,277,0.0,0.0,56,0.00,,---,0.00,VWS V14.01,2013-06-15 05:01:00,
2013-06-15 01:06:00,57.7,42.2,29.88,West,277,0.0,0.0,56,0.00,,---,0.00,VWS V14.01,2013-06-15 05:06:00,
2013-06-15 01:11:00,57.6,42.5,29.88,West,277,0.0,0.0,57,0.00,,---,0.00,VWS V14.01,2013-06-15 05:11:00,
2013-06-15 01:16:00,57.6,42.5,29.88,West,277,0.0,0.0,57,0.00,,---,0.00,VWS V14.01,2013-06-15 05:16:00,
2013-06-15 01:22:00,57.6,42.9,29.88,West,277,0.0,0.0,58,0.00,,---,0.00,VWS V14.01,2013-06-15 05:22:00,
2013-06-15 01:27:00,57.6,42.9,29.88,West,277,0.0,0.0,58,0.00,,---,0.00,VWS V14.01,2013-06-15 05:27:00,
2013-06-15 01:32:00,57.7,43.5,29.88,West,277,0.0,0.0,59,0.00,,---,0.00,VWS V14.01,2013-06-15 05:32:00,
2013-06-15 01:37:00,57.6,43.4,29.88,West,277,3.1,4.0,59,0.00,,---,0.00,VWS V14.01,2013-06-15 05:37:00,
2013-06-15 01:42:00,57.4,43.2,29.88,West,276,0.0,0.0,59,0.00,,---,0.00,VWS V14.01,2013-06-15 05:42:00,
2013-06-15 01:47:00,57.4,43.6,29.88,West,277,0.0,0.0,60,0.00,,---,0.00,VWS V14.01,2013-06-15 05:47:00,
2013-06-15 01:52:00,57.2,43.5,29.88,West,277,0.0,0.0,60,0.00,,---,0.00,VWS V14.01,2013-06-15 05:52:00,
2013-06-15 01:57:00,57.2,43.9,29.88,West,277,0.0,0.0,61,0.00,,---,0.00,VWS V14.01,2013-06-15 05:57:00,
2013-06-15 02:02:00,57.0,43.7,29.88,West,277,0.0,0.0,61,0.00,,---,0.00,VWS V14.01,2013-06-15 06:02:00,
2013-06-15 02:07:00,57.0,43.7,29.88,West,277,0.0,0.0,61,0.00,,---,0.00,VWS V14.01,2013-06-15 06:07:00,
2013-06-15 02:12:00,56.8,43.5,29.88,West,277,0.0,0.0,61,0.00,,---,0.00,VWS V14.01,2013-06-15 06:12:00,
2013-06-15 02:17:00,56.8,44.0,29.88,West,277,0.0,0.0,62,0.00,,---,0.00,VWS V14.01,2013-06-15 06:17:00,
2013-06-15 02:22:00,56.8,44.0,29.88,West,277,0.0,0.0,62,0.00,,---,0.00,VWS V14.01,2013-06-15 06:22:00,
2013-06-15 07:06:00,54.7,46.9,29.94,West,277,0.0,0.0,75,0.00,,---,0.00,VWS V14.01,2013-06-15 11:06:00,
2013-06-15 07:11:00,54.9,47.1,29.94,West,277,0.0,0.0,75,0.00,,---,0.00,VWS V14.01,2013-06-15 11:11:00,
2013-06-15 07:16:00,55.2,47.5,29.94,West,277,0.0,0.0,75,0.00,,---,0.00,VWS V14.01,2013-06-15 11:16:00,
2013-06-15 07:21:00,55.4,47.6,29.94,West,277,0.0,0.0,75,0.00,,---,0.00,VWS V14.01,2013-06-15 11:21:00,
2013-06-15 07:26:00,55.8,48.3,29.94,West,277,0.0,0.0,76,0.00,,---,0.00,VWS V14.01,2013-06-15 11:26:00,
2013-06-15 07:31:00,55.9,48.5,29.94,West,277,0.0,2.7,76,0.00,,---,0.00,VWS V14.01,2013-06-15 11:31:00,
2013-06-15 07:36:00,56.1,49.0,29.97,West,277,3.1,3.1,77,0.00,,---,0.00,VWS V14.01,2013-06-15 11:36:00,
2013-06-15 07:41:00,56.5,49.4,29.97,West,277,0.0,0.0,77,0.00,,---,0.00,VWS V14.01,2013-06-15 11:41:00,
2013-06-15 07:46:00,56.8,49.7,29.97,West,277,0.0,0.0,77,0.00,,---,0.00,VWS V14.01,2013-06-15 11:46:00,
2013-06-15 07:51:00,57.2,50.4,29.97,West,277,0.0,0.0,78,0.00,,---,0.00,VWS V14.01,2013-06-15 11:51:00,
2013-06-15 07:56:00,57.7,50.9,29.97,West,277,0.0,0.0,78,0.00,,---,0.00,VWS V14.01,2013-06-15 11:56:00,
2013-06-15 08:01:00,58.1,51.6,29.97,West,277,0.0,0.0,79,0.00,,---,0.00,VWS V14.01,2013-06-15 12:01:00,
2013-06-15 08:06:00,58.5,51.6,29.97,West,277,0.0,2.7,78,0.00,,---,0.00,VWS V14.01,2013-06-15 12:06:00,
2013-06-15 08:11:00,58.8,52.3,29.97,West,278,0.0,0.0,79,0.04,,---,0.04,VWS V14.01,2013-06-15 12:11:00,
2013-06-15 08:16:00,59.2,52.7,29.97,West,277,0.0,0.0,79,0.04,,---,0.04,VWS V14.01,2013-06-15 12:16:00,
2013-06-15 08:21:00,59.4,52.9,29.97,West,277,0.0,0.0,79,0.04,,---,0.04,VWS V14.01,2013-06-15 12:21:00,
2013-06-15 08:26:00,59.7,53.2,29.97,West,278,0.0,3.1,79,0.04,,---,0.00,VWS V14.01,2013-06-15 12:26:00,
2013-06-15 08:31:00,59.9,53.4,29.97,West,277,0.0,0.0,79,0.04,,---,0.04,VWS V14.01,2013-06-15 12:31:00,
2013-06-15 08:36:00,60.3,53.7,29.97,West,278,0.0,2.7,79,0.04,,---,0.04,VWS V14.01,2013-06-15 12:36:00,
2013-06-15 08:41:00,60.6,54.1,29.97,West,277,2.7,4.0,79,0.04,,---,0.04,VWS V14.01,2013-06-15 12:41:00,
2013-06-15 08:46:00,60.8,54.3,29.97,West,277,0.0,4.5,79,0.04,,---,0.04,VWS V14.01,2013-06-15 12:46:00,
2013-06-15 08:51:00,61.3,54.8,30.00,West,277,4.0,4.5,79,0.04,,---,0.04,VWS V14.01,2013-06-15 12:51:00,
2013-06-15 08:56:00,61.7,55.1,30.00,West,277,2.7,4.5,79,0.04,,---,0.04,VWS V14.01,2013-06-15 12:56:00,
2013-06-15 09:01:00,62.1,55.5,30.00,West,278,0.0,4.5,79,0.04,,---,0.04,VWS V14.01,2013-06-15 13:01:00,
2013-06-15 09:06:00,62.4,55.5,30.00,NNE,27,4.5,6.3,78,0.04,,---,0.04,VWS V14.01,2013-06-15 13:06:00,
2013-06-15 09:11:00,62.6,55.3,30.00,North,11,2.7,4.5,77,0.00,,---,0.04,VWS V14.01,2013-06-15 13:11:00,
2013-06-15 09:16:00,63.0,54.5,30.00,West,272,4.9,6.9,74,0.00,,---,0.04,VWS V14.01,2013-06-15 13:16:00,
2013-06-15 09:21:00,63.3,53.8,30.00,West,266,4.9,8.3,71,0.00,,---,0.04,VWS V14.01,2013-06-15 13:21:00,
2013-06-15 09:26:00,63.3,52.6,30.00,West,267,0.0,0.0,68,0.00,,---,0.04,VWS V14.01,2013-06-15 13:26:00,
2013-06-15 09:31:00,63.5,51.5,30.00,NE,55,2.7,5.4,65,0.00,,---,0.04,VWS V14.01,2013-06-15 13:31:00,
2013-06-15 09:36:00,63.9,49.3,30.00,WSW,250,4.9,6.3,59,0.00,,---,0.04,VWS V14.01,2013-06-15 13:36:00,
2013-06-15 09:41:00,64.2,45.7,30.00,West,265,3.6,6.7,51,0.00,,---,0.04,VWS V14.01,2013-06-15 13:41:00,
2013-06-15 09:46:00,64.4,43.8,30.00,West,272,6.9,6.9,47,0.00,,---,0.04,VWS V14.01,2013-06-15 13:46:00,
2013-06-15 09:51:00,64.6,41.6,30.00,WSW,253,3.6,4.5,43,0.00,,---,0.04,VWS V14.01,2013-06-15 13:51:00,
2013-06-15 09:56:00,64.8,37.2,30.00,NE,49,4.5,8.7,36,0.00,,---,0.04,VWS V14.01,2013-06-15 13:56:00,
2013-06-15 10:01:00,65.1,37.5,30.00,SW,230,3.6,6.3,36,0.00,,---,0.04,VWS V14.01,2013-06-15 14:01:00,
2013-06-15 10:06:00,65.5,37.1,30.00,WSW,258,6.7,6.9,35,0.00,,---,0.04,VWS V14.01,2013-06-15 14:06:00,
2013-06-15 10:11:00,65.7,36.6,30.00,West,261,0.0,3.6,34,0.00,,---,0.04,VWS V14.01,2013-06-15 14:11:00,
2013-06-15 10:16:00,65.8,36.7,30.00,WSW,241,2.7,5.8,34,0.00,,---,0.04,VWS V14.01,2013-06-15 14:16:00,
2013-06-15 10:21:00,66.0,36.1,30.00,NNE,22,4.5,6.9,33,0.00,,---,0.04,VWS V14.01,2013-06-15 14:21:00,
2013-06-15 10:26:00,66.2,36.3,30.00,NNE,15,0.0,4.9,33,0.00,,---,0.04,VWS V14.01,2013-06-15 14:26:00,
2013-06-15 10:31:00,66.4,36.4,30.00,WNW,294,4.5,4.9,33,0.00,,---,0.04,VWS V14.01,2013-06-15 14:31:00,
2013-06-15 10:37:00,66.6,35.0,30.00,NNE,29,6.7,6.7,31,0.00,,---,0.04,VWS V14.01,2013-06-15 14:37:00,
2013-06-15 10:42:00,66.7,30.8,30.00,NNW,335,5.8,6.3,26,0.00,,---,0.04,VWS V14.01,2013-06-15 14:42:00,
2013-06-15 10:47:00,67.1,32.0,30.00,WNW,283,3.1,4.5,27,0.00,,---,0.04,VWS V14.01,2013-06-15 14:47:00,
2013-06-15 10:52:00,67.5,31.4,29.97,West,267,2.7,6.7,26,0.00,,---,0.04,VWS V14.01,2013-06-15 14:52:00,
2013-06-15 10:57:00,68.0,31.9,29.97,West,279,5.4,8.3,26,0.00,,---,0.04,VWS V14.01,2013-06-15 14:57:00,
2013-06-15 11:02:00,68.2,30.0,29.97,WNW,294,0.0,4.9,24,0.00,,---,0.04,VWS V14.01,2013-06-15 15:02:00,
2013-06-15 11:07:00,68.5,31.4,30.00,SW,222,3.1,3.6,25,0.00,,---,0.04,VWS V14.01,2013-06-15 15:07:00,
2013-06-15 11:12:00,69.1,29.8,30.00,NNE,27,6.7,7.4,23,0.00,,---,0.04,VWS V14.01,2013-06-15 15:12:00,
2013-06-15 11:17:00,69.4,29.0,30.00,NNE,17,4.0,6.7,22,0.00,,---,0.04,VWS V14.01,2013-06-15 15:17:00,
2013-06-15 11:22:00,69.6,29.1,30.00,NW,305,4.5,5.4,22,0.00,,---,0.04,VWS V14.01,2013-06-15 15:22:00,
2013-06-15 11:27:00,70.3,29.7,30.00,West,270,4.0,6.9,22,0.00,,---,0.04,VWS V14.01,2013-06-15 15:27:00,
2013-06-15 11:32:00,70.7,26.5,30.00,NE,51,6.7,6.7,19,0.00,,---,0.04,VWS V14.01,2013-06-15 15:32:00,
2013-06-15 11:37:00,71.2,22.8,30.00,West,274,3.6,7.8,16,0.00,,---,0.04,VWS V14.01,2013-06-15 15:37:00,
2013-06-15 11:42:00,71.6,19.9,30.00,NNE,23,4.0,9.6,14,0.00,,---,0.04,VWS V14.01,2013-06-15 15:42:00,
2013-06-15 11:47:00,72.1,20.4,30.00,West,271,7.8,11.2,14,0.00,,---,0.04,VWS V14.01,2013-06-15 15:47:00,
2013-06-15 11:52:00,72.9,19.2,30.00,NNE,29,2.7,5.8,13,0.00,,---,0.04,VWS V14.01,2013-06-15 15:52:00,
2013-06-15 11:57:00,73.2,19.5,30.00,NNE,19,3.1,5.8,13,0.00,,---,0.04,VWS V14.01,2013-06-15 15:57:00,
2013-06-15 12:02:00,73.2,19.5,30.00,NE,52,4.0,5.8,13,0.00,,---,0.04,VWS V14.01,2013-06-15 16:02:00,
2013-06-15 12:07:00,73.4,15.7,30.00,West,268,6.3,6.9,11,0.00,,---,0.04,VWS V14.01,2013-06-15 16:07:00,
2013-06-15 12:12:00,74.5,14.4,30.00,WNW,286,5.8,6.7,10,0.00,,---,0.04,VWS V14.01,2013-06-15 16:12:00,
2013-06-15 12:17:00,75.0,14.8,30.00,NE,49,3.6,12.1,10,0.00,,---,0.04,VWS V14.01,2013-06-15 16:17:00,
2013-06-15 12:22:00,75.4,15.1,30.00,West,265,6.3,6.3,10,0.00,,---,0.04,VWS V14.01,2013-06-15 16:22:00,
2013-06-15 12:27:00,75.9,15.5,30.00,WSW,247,4.5,13.0,10,0.00,,---,0.04,VWS V14.01,2013-06-15 16:27:00,
2013-06-15 12:32:00,75.7,15.4,30.00,NE,35,4.0,6.7,10,0.00,,---,0.04,VWS V14.01,2013-06-15 16:32:00,
2013-06-15 12:37:00,75.6,15.2,29.97,West,260,3.6,8.7,10,0.00,,---,0.04,VWS V14.01,2013-06-15 16:37:00,
2013-06-15 12:42:00,75.9,15.5,29.97,West,260,3.1,4.9,10,0.00,,---,0.04,VWS V14.01,2013-06-15 16:42:00,
2013-06-15 12:47:00,76.3,15.8,29.97,NNW,345,2.7,4.9,10,0.00,,---,0.04,VWS V14.01,2013-06-15 16:47:00,
2013-06-15 12:52:00,75.9,15.5,29.97,East,83,2.7,4.5,10,0.00,,---,0.04,VWS V14.01,2013-06-15 16:52:00,
2013-06-15 12:57:00,76.3,15.8,29.97,NE,40,6.3,6.3,10,0.00,,---,0.04,VWS V14.01,2013-06-15 16:57:00,
2013-06-15 13:02:00,76.8,16.2,29.97,NW,325,2.7,8.7,10,0.00,,---,0.04,VWS V14.01,2013-06-15 17:02:00,
2013-06-15 13:07:00,77.4,16.6,29.97,SW,214,4.0,4.5,10,0.00,,---,0.04,VWS V14.01,2013-06-15 17:07:00,
2013-06-15 13:12:00,77.5,16.7,29.97,NE,37,4.5,4.5,10,0.00,,---,0.04,VWS V14.01,2013-06-15 17:12:00,
2013-06-15 13:17:00,77.9,17.0,29.97,NE,48,4.0,6.7,10,0.00,,---,0.04,VWS V14.01,2013-06-15 17:17:00,
2013-06-15 13:22:00,77.7,16.9,29.97,SW,228,0.0,5.8,10,0.00,,---,0.04,VWS V14.01,2013-06-15 17:22:00,
2013-06-15 13:27:00,78.1,17.1,29.97,NW,317,6.3,7.8,10,0.00,,---,0.04,VWS V14.01,2013-06-15 17:27:00,
2013-06-15 13:32:00,78.3,17.3,29.97,WNW,300,0.0,4.9,10,0.00,,---,0.04,VWS V14.01,2013-06-15 17:32:00,
2013-06-15 13:37:00,78.8,17.7,29.97,NW,318,0.0,6.3,10,0.00,,---,0.04,VWS V14.01,2013-06-15 17:37:00,
2013-06-15 13:42:00,79.2,18.0,29.97,NNE,31,0.0,7.8,10,0.00,,---,0.04,VWS V14.01,2013-06-15 17:42:00,
2013-06-15 13:47:00,80.1,18.6,29.97,West,278,4.0,4.5,10,0.00,,---,0.04,VWS V14.01,2013-06-15 17:47:00,
2013-06-15 13:52:00,79.7,18.4,29.97,NE,50,4.9,4.9,10,0.00,,---,0.04,VWS V14.01,2013-06-15 17:52:00,
2013-06-15 13:57:00,79.7,18.4,29.97,West,279,3.1,9.6,10,0.00,,---,0.04,VWS V14.01,2013-06-15 17:57:00,
2013-06-15 14:02:00,80.4,18.9,29.97,WSW,244,6.7,13.0,10,0.00,,---,0.04,VWS V14.01,2013-06-15 18:02:00,
2013-06-15 14:07:00,80.4,18.9,29.97,WSW,258,7.4,8.3,10,0.00,,---,0.04,VWS V14.01,2013-06-15 18:07:00,
2013-06-15 14:12:00,81.0,19.3,29.97,WSW,238,5.4,6.9,10,0.00,,---,0.04,VWS V14.01,2013-06-15 18:12:00,
2013-06-15 14:17:00,80.8,19.2,29.97,North,351,2.7,9.6,10,0.00,,---,0.04,VWS V14.01,2013-06-15 18:17:00,
2013-06-15 14:22:00,81.0,19.3,29.94,WSW,239,3.6,5.8,10,0.00,,---,0.04,VWS V14.01,2013-06-15 18:22:00,
2013-06-15 14:27:00,80.8,19.2,29.94,NNE,31,4.0,6.9,10,0.00,,---,0.04,VWS V14.01,2013-06-15 18:27:00,
2013-06-15 14:32:00,81.1,19.5,29.94,NE,36,4.5,5.8,10,0.00,,---,0.04,VWS V14.01,2013-06-15 18:32:00,
2013-06-15 14:37:00,81.0,19.3,29.94,NE,56,0.0,0.0,10,0.00,,---,0.04,VWS V14.01,2013-06-15 18:37:00,
2013-06-15 14:42:00,79.9,18.5,29.94,NE,55,0.0,0.0,10,0.00,,---,0.04,VWS V14.01,2013-06-15 18:42:00,
2013-06-15 14:47:00,81.0,19.3,29.94,WNW,288,4.9,8.7,10,0.00,,---,0.04,VWS V14.01,2013-06-15 18:47:00,
2013-06-15 14:52:00,81.9,20.0,29.94,West,280,3.1,9.2,10,0.00,,---,0.04,VWS V14.01,2013-06-15 18:52:00,
2013-06-15 14:57:00,82.8,20.7,29.94,West,271,8.7,12.5,10,0.00,,---,0.04,VWS V14.01,2013-06-15 18:57:00,
2013-06-15 15:02:00,82.6,20.6,29.94,WNW,289,2.7,7.4,10,0.00,,---,0.04,VWS V14.01,2013-06-15 19:02:00,
2013-06-15 15:07:00,82.9,20.8,29.94,SW,236,2.7,10.1,10,0.00,,---,0.04,VWS V14.01,2013-06-15 19:07:00,
2013-06-15 15:12:00,82.2,20.3,29.94,NW,321,0.0,11.0,10,0.00,,---,0.04,VWS V14.01,2013-06-15 19:12:00,
2013-06-15 15:17:00,82.0,20.1,29.94,WSW,251,0.0,8.3,10,0.00,,---,0.04,VWS V14.01,2013-06-15 19:17:00,
2013-06-15 15:22:00,82.4,20.4,29.94,NNW,343,4.5,6.9,10,0.00,,---,0.04,VWS V14.01,2013-06-15 19:22:00,
2013-06-15 15:27:00,82.6,20.6,29.94,WNW,299,10.1,12.1,10,0.00,,---,0.04,VWS V14.01,2013-06-15 19:27:00,
2013-06-15 15:32:00,82.2,20.3,29.94,NNE,28,3.6,8.3,10,0.00,,---,0.04,VWS V14.01,2013-06-15 19:32:00,
2013-06-15 15:37:00,83.1,21.0,29.94,WSW,252,0.0,6.3,10,0.00,,---,0.04,VWS V14.01,2013-06-15 19:37:00,
2013-06-15 15:42:00,83.7,21.4,29.94,WNW,287,0.0,7.4,10,0.00,,---,0.04,VWS V14.01,2013-06-15 19:42:00,
2013-06-15 15:47:00,83.7,21.4,29.94,SW,233,4.5,10.1,10,0.00,,---,0.04,VWS V14.01,2013-06-15 19:47:00,
2013-06-15 15:52:00,83.5,21.2,29.94,WSW,256,4.0,5.4,10,0.00,,---,0.04,VWS V14.01,2013-06-15 19:52:00,
2013-06-15 15:57:00,84.6,22.1,29.94,WSW,257,4.5,4.5,10,0.00,,---,0.04,VWS V14.01,2013-06-15 19:57:00,
2013-06-15 16:02:00,84.2,21.8,29.94,North,2,0.0,8.7,10,0.00,,---,0.04,VWS V14.01,2013-06-15 20:02:00,
2013-06-15 16:07:00,82.8,20.7,29.91,NNE,25,0.0,5.4,10,0.00,,---,0.04,VWS V14.01,2013-06-15 20:07:00,
2013-06-15 16:12:00,81.1,19.5,29.91,NE,55,5.8,6.3,10,0.00,,---,0.04,VWS V14.01,2013-06-15 20:12:00,
2013-06-15 16:17:00,81.5,19.7,29.91,North,351,0.0,4.0,10,0.00,,---,0.04,VWS V14.01,2013-06-15 20:17:00,
2013-06-15 16:22:00,82.6,20.6,29.94,NNW,334,3.1,4.0,10,0.00,,---,0.04,VWS V14.01,2013-06-15 20:22:00,
2013-06-15 16:27:00,82.0,20.1,29.94,North,351,0.0,4.5,10,0.00,,---,0.04,VWS V14.01,2013-06-15 20:27:00,
2013-06-15 16:32:00,83.5,21.2,29.94,North,356,0.0,3.6,10,0.00,,---,0.04,VWS V14.01,2013-06-15 20:32:00,
2013-06-15 16:37:00,84.2,21.8,29.91,NE,48,6.7,6.7,10,0.00,,---,0.04,VWS V14.01,2013-06-15 20:37:00,
2013-06-15 16:42:00,84.4,21.9,29.91,North,356,0.0,3.6,10,0.00,,---,0.04,VWS V14.01,2013-06-15 20:42:00,
2013-06-15 16:47:00,83.7,21.4,29.91,NNE,12,4.0,4.5,10,0.00,,---,0.04,VWS V14.01,2013-06-15 20:47:00,
2013-06-15 16:52:00,84.0,21.6,29.94,West,260,3.6,5.4,10,0.00,,---,0.04,VWS V14.01,2013-06-15 20:52:00,
2013-06-15 16:57:00,84.2,21.8,29.94,WNW,293,0.0,3.6,10,0.00,,---,0.04,VWS V14.01,2013-06-15 20:57:00,
2013-06-15 17:02:00,84.2,21.8,29.94,West,270,0.0,5.4,10,0.00,,---,0.04,VWS V14.01,2013-06-15 21:02:00,
2013-06-15 17:07:00,83.3,21.1,29.94,West,270,3.1,3.1,10,0.00,,---,0.04,VWS V14.01,2013-06-15 21:07:00,
2013-06-15 17:12:00,82.9,20.8,29.94,West,270,0.0,4.0,10,0.00,,---,0.04,VWS V14.01,2013-06-15 21:12:00,
2013-06-15 17:17:00,83.7,21.4,29.94,West,270,0.0,0.0,10,0.00,,---,0.04,VWS V14.01,2013-06-15 21:17:00,
2013-06-15 17:22:00,83.8,21.5,29.91,WSW,257,0.0,8.7,10,0.00,,---,0.04,VWS V14.01,2013-06-15 21:22:00,
2013-06-15 17:27:00,84.2,21.8,29.91,West,273,0.0,5.8,10,0.00,,---,0.04,VWS V14.01,2013-06-15 21:27:00,
2013-06-15 17:32:00,84.2,21.8,29.91,West,273,0.0,0.0,10,0.00,,---,0.04,VWS V14.01,2013-06-15 21:32:00,
2013-06-15 17:37:00,83.5,21.2,29.94,WNW,283,0.0,5.8,10,0.00,,---,0.04,VWS V14.01,2013-06-15 21:37:00,
2013-06-15 17:43:00,82.6,20.6,29.94,West,263,0.0,4.0,10,0.00,,---,0.04,VWS V14.01,2013-06-15 21:43:00,
2013-06-15 17:48:00,82.0,20.1,29.94,North,356,0.0,0.0,10,0.00,,---,0.04,VWS V14.01,2013-06-15 21:48:00,
2013-06-15 17:53:00,81.7,19.9,29.91,North,356,0.0,0.0,10,0.00,,---,0.04,VWS V14.01,2013-06-15 21:53:00,
2013-06-15 17:58:00,80.2,18.8,29.91,North,356,0.0,0.0,10,0.00,,---,0.04,VWS V14.01,2013-06-15 21:58:00,
2013-06-15 18:03:00,80.6,19.0,29.91,NNW,336,0.0,0.0,10,0.00,,---,0.04,VWS V14.01,2013-06-15 22:03:00,
2013-06-15 18:08:00,81.0,19.3,29.94,SW,233,4.0,5.4,10,0.00,,---,0.04,VWS V14.01,2013-06-15 22:08:00,
2013-06-15 18:13:00,81.0,19.3,29.94,West,279,0.0,2.7,10,0.00,,---,0.04,VWS V14.01,2013-06-15 22:13:00,
2013-06-15 18:18:00,80.8,19.2,29.94,North,7,0.0,0.0,10,0.00,,---,0.04,VWS V14.01,2013-06-15 22:18:00,
2013-06-15 18:23:00,80.8,19.2,29.94,NNE,13,0.0,5.8,10,0.00,,---,0.04,VWS V14.01,2013-06-15 22:23:00,
2013-06-15 18:28:00,79.9,18.5,29.94,NW,319,0.0,3.6,10,0.00,,---,0.04,VWS V14.01,2013-06-15 22:28:00,
2013-06-15 18:33:00,79.7,18.4,29.94,WSW,257,0.0,2.7,10,0.00,,---,0.04,VWS V14.01,2013-06-15 22:33:00,
2013-06-15 18:38:00,79.5,18.2,29.91,SW,215,0.0,0.0,10,0.00,,---,0.04,VWS V14.01,2013-06-15 22:38:00,
2013-06-15 18:43:00,79.2,18.0,29.91,SW,221,0.0,0.0,10,0.00,,---,0.04,VWS V14.01,2013-06-15 22:43:00,
2013-06-15 18:48:00,78.8,17.7,29.91,SW,221,0.0,0.0,10,0.00,,---,0.04,VWS V14.01,2013-06-15 22:48:00,
2013-06-15 18:53:00,78.4,17.4,29.91,WNW,285,0.0,0.0,10,0.00,,---,0.04,VWS V14.01,2013-06-15 22:53:00,
2013-06-15 18:58:00,77.9,17.0,29.91,WNW,285,0.0,0.0,10,0.00,,---,0.04,VWS V14.01,2013-06-15 22:58:00,
2013-06-15 19:03:00,77.7,16.9,29.91,WSW,255,0.0,0.0,10,0.00,,---,0.04,VWS V14.01,2013-06-15 23:03:00,
2013-06-15 19:08:00,77.4,16.6,29.91,WSW,245,0.0,0.0,10,0.00,,---,0.04,VWS V14.01,2013-06-15 23:08:00,
2013-06-15 19:13:00,76.8,16.2,29.91,WSW,245,0.0,0.0,10,0.00,,---,0.04,VWS V14.01,2013-06-15 23:13:00,
2013-06-15 19:18:00,76.5,15.9,29.91,WSW,245,0.0,0.0,10,0.00,,---,0.04,VWS V14.01,2013-06-15 23:18:00,
2013-06-15 19:23:00,76.1,15.6,29.91,WSW,245,0.0,0.0,10,0.00,,---,0.04,VWS V14.01,2013-06-15 23:23:00,
2013-06-15 19:28:00,75.9,15.5,29.91,West,277,0.0,0.0,10,0.00,,---,0.04,VWS V14.01,2013-06-15 23:28:00,
2013-06-15 19:33:00,75.7,15.4,29.91,West,277,0.0,0.0,10,0.00,,---,0.04,VWS V14.01,2013-06-15 23:33:00,
2013-06-15 19:38:00,75.0,14.8,29.94,West,277,0.0,0.0,10,0.00,,---,0.04,VWS V14.01,2013-06-15 23:38:00,
2013-06-15 19:43:00,74.7,14.5,29.94,West,277,0.0,0.0,10,0.00,,---,0.04,VWS V14.01,2013-06-15 23:43:00,
2013-06-15 19:48:00,74.3,14.2,29.94,West,277,0.0,0.0,10,0.00,,---,0.04,VWS V14.01,2013-06-15 23:48:00,
2013-06-15 19:53:00,73.6,15.9,29.94,West,277,0.0,0.0,11,0.00,,---,0.04,VWS V14.01,2013-06-15 23:53:00,
2013-06-15 19:58:00,73.0,15.5,29.94,West,277,0.0,0.0,11,0.00,,---,0.04,VWS V14.01,2013-06-15 23:58:00,
2013-06-15 20:03:00,72.3,14.9,29.94,West,277,0.0,0.0,11,0.00,,---,0.04,VWS V14.01,2013-06-16 00:03:00,
2013-06-15 20:08:00,71.8,14.5,29.94,West,277,0.0,0.0,11,0.00,,---,0.04,VWS V14.01,2013-06-16 00:08:00,
2013-06-15 20:13:00,71.4,19.8,29.94,West,277,0.0,0.0,14,0.00,,---,0.04,VWS V14.01,2013-06-16 00:13:00,
2013-06-15 20:18:00,70.9,19.4,29.94,West,277,0.0,0.0,14,0.00,,---,0.04,VWS V14.01,2013-06-16 00:18:00,
2013-06-15 20:23:00,70.3,23.5,29.94,West,277,0.0,0.0,17,0.00,,---,0.04,VWS V14.01,2013-06-16 00:23:00,
2013-06-15 20:28:00,70.3,23.5,29.94,West,277,0.0,0.0,17,0.00,,---,0.04,VWS V14.01,2013-06-16 00:28:00,
2013-06-15 20:33:00,70.0,23.2,29.94,West,277,0.0,0.0,17,0.00,,---,0.04,VWS V14.01,2013-06-16 00:33:00,
2013-06-15 20:38:00,69.8,23.1,29.94,West,277,0.0,0.0,17,0.00,,---,0.04,VWS V14.01,2013-06-16 00:38:00,
2013-06-15 20:43:00,69.3,25.3,29.94,West,277,0.0,0.0,19,0.00,,---,0.04,VWS V14.01,2013-06-16 00:43:00,
2013-06-15 20:48:00,68.7,28.4,29.94,West,277,0.0,0.0,22,0.00,,---,0.04,VWS V14.01,2013-06-16 00:48:00,
2013-06-15 20:53:00,68.4,28.1,29.94,West,277,0.0,0.0,22,0.00,,---,0.04,VWS V14.01,2013-06-16 00:53:00,
2013-06-15 20:58:00,68.2,27.9,29.94,West,277,0.0,0.0,22,0.00,,---,0.04,VWS V14.01,2013-06-16 00:58:00,
2013-06-15 21:03:00,68.0,28.9,29.94,West,277,0.0,0.0,23,0.00,,---,0.04,VWS V14.01,2013-06-16 01:03:00,
2013-06-15 21:08:00,67.8,28.7,29.94,West,277,0.0,0.0,23,0.00,,---,0.04,VWS V14.01,2013-06-16 01:08:00,
2013-06-15 21:13:00,67.5,28.4,29.94,West,277,0.0,0.0,23,0.00,,---,0.04,VWS V14.01,2013-06-16 01:13:00,
2013-06-15 21:18:00,66.9,29.0,29.94,West,277,0.0,0.0,24,0.00,,---,0.04,VWS V14.01,2013-06-16 01:18:00,
2013-06-15 21:23:00,66.6,28.7,29.94,West,277,0.0,0.0,24,0.00,,---,0.04,VWS V14.01,2013-06-16 01:23:00,
2013-06-15 21:28:00,66.2,29.4,29.94,West,277,0.0,0.0,25,0.00,,---,0.04,VWS V14.01,2013-06-16 01:28:00,
2013-06-15 21:33:00,65.8,30.0,29.94,West,277,0.0,0.0,26,0.00,,---,0.04,VWS V14.01,2013-06-16 01:33:00,
2013-06-15 21:38:00,65.5,30.6,29.94,West,277,0.0,0.0,27,0.00,,---,0.04,VWS V14.01,2013-06-16 01:38:00,
2013-06-15 21:43:00,65.1,32.9,29.94,West,277,0.0,0.0,30,0.00,,---,0.04,VWS V14.01,2013-06-16 01:43:00,
2013-06-15 21:48:00,64.8,33.5,29.94,West,277,0.0,0.0,31,0.00,,---,0.04,VWS V14.01,2013-06-16 01:48:00,
2013-06-15 21:53:00,64.4,34.7,29.97,West,277,0.0,0.0,33,0.00,,---,0.04,VWS V14.01,2013-06-16 01:53:00,
2013-06-15 21:58:00,64.0,35.1,29.97,West,277,0.0,0.0,34,0.00,,---,0.04,VWS V14.01,2013-06-16 01:58:00,
2013-06-15 22:03:00,63.5,35.4,29.97,West,277,0.0,0.0,35,0.00,,---,0.04,VWS V14.01,2013-06-16 02:03:00,
2013-06-15 22:08:00,63.1,35.8,29.97,West,277,0.0,0.0,36,0.00,,---,0.04,VWS V14.01,2013-06-16 02:08:00,
2013-06-15 22:13:00,63.1,36.5,29.97,West,277,0.0,0.0,37,0.00,,---,0.04,VWS V14.01,2013-06-16 02:13:00,
2013-06-15 22:18:00,63.0,36.3,29.97,West,277,0.0,0.0,37,0.00,,---,0.04,VWS V14.01,2013-06-16 02:18:00,
2013-06-15 22:23:00,62.6,36.0,29.97,West,277,0.0,0.0,37,0.00,,---,0.04,VWS V14.01,2013-06-16 02:23:00,
2013-06-15 22:28:00,62.4,35.8,29.97,West,277,0.0,0.0,37,0.00,,---,0.04,VWS V14.01,2013-06-16 02:28:00,
2013-06-15 22:33:00,62.2,36.3,29.97,West,277,0.0,0.0,38,0.00,,---,0.04,VWS V14.01,2013-06-16 02:33:00,
2013-06-15 22:38:00,62.1,37.5,29.97,West,277,0.0,0.0,40,0.00,,---,0.04,VWS V14.01,2013-06-16 02:38:00,
2013-06-15 22:43:00,61.9,37.3,29.97,West,277,0.0,0.0,40,0.00,,---,0.04,VWS V14.01,2013-06-16 02:43:00,
2013-06-15 22:48:00,61.7,38.4,29.97,West,277,0.0,0.0,42,0.00,,---,0.04,VWS V14.01,2013-06-16 02:48:00,
2013-06-15 22:53:00,61.5,38.8,29.97,West,277,0.0,0.0,43,0.00,,---,0.04,VWS V14.01,2013-06-16 02:53:00,
2013-06-15 22:58:00,61.3,39.3,29.97,West,277,0.0,0.0,44,0.00,,---,0.04,VWS V14.01,2013-06-16 02:58:00,
2013-06-15 23:03:00,61.0,39.5,29.97,West,277,0.0,0.0,45,0.00,,---,0.04,VWS V14.01,2013-06-16 03:03:00,
2013-06-15 23:08:00,60.6,39.2,29.97,West,277,0.0,0.0,45,0.00,,---,0.04,VWS V14.01,2013-06-16 03:08:00,
2013-06-15 23:13:00,60.4,39.6,29.97,West,277,0.0,0.0,46,0.00,,---,0.04,VWS V14.01,2013-06-16 03:13:00,
2013-06-15 23:18:00,60.3,40.0,29.97,West,277,0.0,0.0,47,0.00,,---,0.04,VWS V14.01,2013-06-16 03:18:00,
2013-06-15 23:23:00,60.1,40.3,29.97,West,277,0.0,0.0,48,0.00,,---,0.04,VWS V14.01,2013-06-16 03:23:00,
2013-06-15 23:29:00,60.1,40.9,29.97,West,277,0.0,0.0,49,0.00,,---,0.04,VWS V14.01,2013-06-16 03:29:00,
2013-06-15 23:34:00,59.9,40.7,29.97,West,277,0.0,0.0,49,0.00,,---,0.04,VWS V14.01,2013-06-16 03:34:00,
2013-06-15 23:39:00,59.5,40.4,29.97,West,277,0.0,0.0,49,0.00,,---,0.04,VWS V14.01,2013-06-16 03:39:00,
2013-06-15 23:44:00,59.4,40.2,29.97,West,277,0.0,0.0,49,0.00,,---,0.04,VWS V14.01,2013-06-16 03:44:00,
2013-06-15 23:49:00,59.2,40.0,29.97,West,277,0.0,0.0,49,0.00,,---,0.04,VWS V14.01,2013-06-16 03:49:00,
2013-06-15 23:54:00,59.2,40.6,29.97,West,277,0.0,0.0,50,0.00,,---,0.04,VWS V14.01,2013-06-16 03:54:00,
2013-06-15 23:59:00,59.0,40.9,29.97,West,277,0.0,0.0,51,0.00,,---,0.04,VWS V14.01,2013-06-16 03:59:00,